createdAt,value
2023-05-18T00:02:26.852Z,99623.84
2023-05-18T00:04:55.859Z,99628.81
2023-05-18T00:07:26.603Z,99628.94
2023-05-18T00:09:55.983Z,99629.56
2023-05-18T00:12:23.845Z,99627.66
2023-05-18T00:14:51.339Z,99634.38
2023-05-18T00:17:20.442Z,99634.19
2023-05-18T00:19:50.428Z,99640.59
2023-05-18T00:22:20.805Z,99632.50
2023-05-18T00:24:48.665Z,99638.16
2023-05-18T00:27:16.410Z,99637.09
2023-05-18T00:29:43.748Z,99642.41
2023-05-18T00:32:13.103Z,99647.81
2023-05-18T00:34:40.749Z,99640.41
2023-05-18T00:37:08.468Z,99650.53
2023-05-18T00:39:35.792Z,99654.44
2023-05-18T00:42:03.827Z,99654.69
2023-05-18T00:44:31.583Z,99655.31
2023-05-18T00:47:00.311Z,99652.34
2023-05-18T00:49:27.896Z,99654.44
2023-05-18T00:51:56.198Z,99654.56
2023-05-18T00:54:26.418Z,99647.31
2023-05-18T00:56:54.335Z,99651.69
2023-05-18T00:59:22.216Z,99652.06
2023-05-18T01:01:50.219Z,99662.28
2023-05-18T01:04:17.963Z,99655.00
2023-05-18T01:06:46.589Z,99660.06
2023-05-18T01:09:15.328Z,99668.56
2023-05-18T01:11:52.996Z,99673.41
2023-05-18T01:14:45.733Z,99664.09
2023-05-18T01:17:37.914Z,99675.94
2023-05-18T01:20:47.446Z,99668.44
2023-05-18T01:23:45.212Z,99687.41
2023-05-18T01:26:30.176Z,99681.78
2023-05-18T01:29:01.640Z,99688.03
2023-05-18T01:31:30.535Z,99684.28
2023-05-18T01:33:58.734Z,99685.53
2023-05-18T01:36:26.607Z,99685.53
2023-05-18T01:39:01.686Z,99684.28
2023-05-18T01:41:30.700Z,99664.09
2023-05-18T01:44:18.439Z,99692.00
2023-05-18T01:47:01.399Z,99692.22
2023-05-18T01:49:29.231Z,99689.69
2023-05-18T01:52:02.993Z,99683.88
2023-05-18T01:54:32.649Z,99690.94
2023-05-18T01:57:01.373Z,99691.13
2023-05-18T01:59:31.231Z,99694.28
2023-05-18T02:02:00.631Z,99686.59
2023-05-18T02:04:29.188Z,99702.81
2023-05-18T02:06:57.011Z,99696.56
2023-05-18T02:09:24.828Z,99700.50
2023-05-18T02:11:52.144Z,99708.59
2023-05-18T02:14:19.824Z,99709.88
2023-05-18T02:16:47.565Z,99716.53
2023-05-18T02:19:15.623Z,99718.38
2023-05-18T02:21:45.136Z,99726.31
2023-05-18T02:24:13.201Z,99721.75
2023-05-18T02:26:42.033Z,99723.00
2023-05-18T02:29:12.048Z,99722.56
2023-05-18T02:31:39.478Z,99722.56
2023-05-18T02:34:09.284Z,99715.06
2023-05-18T02:36:42.917Z,99723.41
2023-05-18T02:39:10.738Z,99723.19
2023-05-18T02:41:38.294Z,99720.06
2023-05-18T02:44:06.462Z,99717.16
2023-05-18T02:46:33.924Z,99717.16
2023-05-18T02:49:01.982Z,99716.53
2023-05-18T02:51:30.591Z,99725.06
2023-05-18T02:53:58.574Z,99720.50
2023-05-18T02:56:26.464Z,99721.25
2023-05-18T02:59:01.543Z,99722.13
2023-05-18T03:01:35.056Z,99734.16
2023-05-18T03:04:03.191Z,99734.16
2023-05-18T03:06:31.233Z,99736.22
2023-05-18T03:08:59.339Z,99743.91
2023-05-18T03:11:35.748Z,99738.50
2023-05-18T03:14:03.684Z,99736.41
2023-05-18T03:16:31.252Z,99744.25
2023-05-18T03:19:02.238Z,99744.47
2023-05-18T03:21:36.321Z,99753.41
2023-05-18T03:24:04.650Z,99729.91
2023-05-18T03:26:35.168Z,99753.84
2023-05-18T03:29:03.058Z,99750.34
2023-05-18T03:31:30.988Z,99757.44
2023-05-18T03:34:01.169Z,99762.41
2023-05-18T03:36:29.111Z,99751.59
2023-05-18T03:38:57.046Z,99770.28
2023-05-18T03:41:28.533Z,99774.72
2023-05-18T03:43:56.903Z,99758.47
2023-05-18T03:46:26.018Z,99766.38
2023-05-18T03:48:55.807Z,99796.09
2023-05-18T03:51:31.536Z,99787.34
2023-05-18T03:54:00.896Z,99801.94
2023-05-18T03:56:31.428Z,99789.88
2023-05-18T03:58:59.481Z,99792.31
2023-05-18T04:01:30.578Z,99799.63
2023-05-18T04:03:59.841Z,99803.94
2023-05-18T04:06:28.837Z,99806.44
2023-05-18T04:08:57.038Z,99806.88
2023-05-18T04:11:26.197Z,99808.09
2023-05-18T04:13:54.162Z,99820.78
2023-05-18T04:16:22.220Z,99820.19
2023-05-18T04:18:50.552Z,99822.22
2023-05-18T04:21:19.567Z,99817.44
2023-05-18T04:23:47.552Z,99823.09
2023-05-18T04:26:20.459Z,99822.88
2023-05-18T04:28:48.454Z,99831.66
2023-05-18T04:31:18.069Z,99831.25
2023-05-18T04:33:47.545Z,99833.34
2023-05-18T04:36:21.211Z,99833.97
2023-05-18T04:38:53.390Z,99836.00
2023-05-18T04:41:21.233Z,99829.09
2023-05-18T04:43:50.575Z,99837.91
2023-05-18T04:46:18.989Z,99832.94
2023-05-18T04:48:50.267Z,99842.59
2023-05-18T04:51:21.668Z,99852.56
2023-05-18T04:53:51.409Z,99846.34
2023-05-18T04:56:20.875Z,99848.22
2023-05-18T04:58:49.354Z,99843.84
2023-05-18T05:01:17.838Z,99855.88
2023-05-18T05:03:46.439Z,99850.91
2023-05-18T05:06:14.236Z,99857.97
2023-05-18T05:08:41.981Z,99860.84
2023-05-18T05:11:09.379Z,99858.38
2023-05-18T05:13:37.800Z,99858.00
2023-05-18T05:16:05.419Z,99867.53
2023-05-18T05:18:33.228Z,99855.81
2023-05-18T05:21:00.801Z,99874.91
2023-05-18T05:23:29.616Z,99875.53
2023-05-18T05:25:57.580Z,99862.47
2023-05-18T05:28:29.417Z,99858.50
2023-05-18T05:30:57.069Z,99873.16
2023-05-18T05:33:24.977Z,99877.91
2023-05-18T05:35:52.576Z,99873.94
2023-05-18T05:38:20.280Z,99879.41
2023-05-18T05:40:49.080Z,99881.03
2023-05-18T05:43:17.129Z,99877.13
2023-05-18T05:45:46.530Z,99883.31
2023-05-18T05:48:14.779Z,99875.00
2023-05-18T05:50:42.231Z,99883.78
2023-05-18T05:53:10.676Z,99886.91
2023-05-18T05:55:42.132Z,99891.31
2023-05-18T05:58:17.439Z,99878.69
2023-05-18T06:00:51.038Z,99882.38
2023-05-18T06:03:19.030Z,99888.03
2023-05-18T06:05:48.158Z,99892.56
2023-05-18T06:08:20.007Z,99885.53
2023-05-18T06:10:48.349Z,99898.00
2023-05-18T06:13:19.884Z,99891.31
2023-05-18T06:15:58.966Z,99892.16
2023-05-18T06:18:29.734Z,99901.06
2023-05-18T06:21:03.544Z,99906.94
2023-05-18T06:23:31.560Z,99902.50
2023-05-18T06:26:02.193Z,99910.59
2023-05-18T06:28:48.480Z,99907.50
2023-05-18T06:31:25.285Z,99910.44
2023-05-18T06:34:28.244Z,99922.34
2023-05-18T06:36:55.687Z,99930.66
2023-05-18T06:39:23.280Z,99928.41
2023-05-18T06:41:52.408Z,99927.47
2023-05-18T06:44:24.370Z,99928.50
2023-05-18T06:47:14.626Z,99932.25
2023-05-18T06:49:42.865Z,99940.81
2023-05-18T06:52:13.887Z,99929.13
2023-05-18T06:54:43.569Z,99930.63
2023-05-18T06:57:11.095Z,99939.97
2023-05-18T06:59:39.152Z,99937.50
2023-05-18T07:02:07.640Z,99936.75
2023-05-18T07:04:35.425Z,99939.47
2023-05-18T07:07:02.804Z,99945.47
2023-05-18T07:09:30.461Z,99942.22
2023-05-18T07:11:59.145Z,99946.25
2023-05-18T07:14:26.851Z,99947.34
2023-05-18T07:16:54.239Z,99939.03
2023-05-18T07:19:22.112Z,99941.97
2023-05-18T07:21:49.932Z,99933.63
2023-05-18T07:24:17.714Z,99942.34
2023-05-18T07:26:45.068Z,99942.75
2023-05-18T07:29:12.704Z,99949.03
2023-05-18T07:31:41.400Z,99949.06
2023-05-18T07:34:09.062Z,99940.50
2023-05-18T07:36:36.460Z,99952.59
2023-05-18T07:39:04.397Z,99953.69
2023-05-18T07:41:31.996Z,99953.28
2023-05-18T07:44:00.139Z,99952.25
2023-05-18T07:46:27.578Z,99947.16
2023-05-18T07:48:55.613Z,99945.97
2023-05-18T07:51:23.198Z,99958.91
2023-05-18T07:53:50.798Z,99955.59
2023-05-18T07:56:18.276Z,99958.13
2023-05-18T07:58:46.093Z,99945.78
2023-05-18T08:01:13.447Z,99970.34
2023-05-18T08:03:43.348Z,99945.34
2023-05-18T08:06:11.230Z,99967.00
2023-05-18T08:08:39.044Z,99972.34
2023-05-18T08:11:06.398Z,99969.94
2023-05-18T08:13:34.257Z,99984.50
2023-05-18T08:16:11.151Z,99974.53
2023-05-18T08:18:40.865Z,99977.28
2023-05-18T08:21:09.908Z,99992.13
2023-05-18T08:23:38.706Z,99992.56
2023-05-18T08:26:06.218Z,99986.72
2023-05-18T08:28:33.891Z,99993.41
2023-05-18T08:31:01.210Z,99992.38
2023-05-18T08:33:29.017Z,99988.81
2023-05-18T08:35:56.832Z,100003.22
2023-05-18T08:38:24.450Z,99997.56
2023-05-18T08:41:45.577Z,100007.97
2023-05-18T08:44:21.268Z,100001.13
2023-05-18T08:46:51.564Z,99998.81
2023-05-18T08:49:20.984Z,100004.25
2023-05-18T08:52:03.451Z,100009.06
2023-05-18T08:54:32.113Z,100008.19
2023-05-18T08:56:59.857Z,100000.28
2023-05-18T08:59:32.128Z,100006.72
2023-05-18T09:02:00.568Z,100008.63
2023-05-18T09:04:28.715Z,100002.13
2023-05-18T09:07:00.232Z,100009.66
2023-05-18T09:09:28.464Z,99986.72
2023-05-18T09:11:57.624Z,100004.03
2023-05-18T09:14:27.096Z,100015.06
2023-05-18T09:16:55.063Z,99987.06
2023-05-18T09:19:24.971Z,99999.16
2023-05-18T09:21:52.664Z,100002.88
2023-05-18T09:24:23.760Z,100007.31
2023-05-18T09:26:54.543Z,100009.94
2023-05-18T09:29:24.492Z,100016.72
2023-05-18T09:31:56.112Z,100016.53
2023-05-18T09:34:39.022Z,100007.53
2023-05-18T09:37:06.519Z,100012.31
2023-05-18T09:39:34.180Z,100009.50
2023-05-18T09:42:07.252Z,100015.06
2023-05-18T09:44:36.524Z,100016.19
2023-05-18T09:47:10.746Z,100022.47
2023-05-18T09:49:38.434Z,100021.22
2023-05-18T09:52:09.204Z,100021.88
2023-05-18T09:54:37.894Z,100020.91
2023-05-18T09:59:36.938Z,100019.53
2023-05-18T10:02:12.274Z,100022.94
2023-05-18T10:04:42.820Z,100030.47
2023-05-18T10:07:14.956Z,100032.34
2023-05-18T10:09:45.499Z,100030.50
2023-05-18T10:12:14.049Z,100035.75
2023-05-18T10:14:43.645Z,100016.13
2023-05-18T10:17:16.912Z,100027.94
2023-05-18T10:19:46.445Z,100034.63
2023-05-18T10:22:18.181Z,100034.19
2023-05-18T10:24:51.871Z,100023.28
2023-05-18T10:27:27.063Z,100027.38
2023-05-18T10:29:58.604Z,100027.88
2023-05-18T10:32:26.620Z,100028.41
2023-05-18T10:34:56.546Z,100033.16
2023-05-18T10:37:24.715Z,100041.09
2023-05-18T10:39:55.011Z,100031.50
2023-05-18T10:42:22.712Z,100035.72
2023-05-18T10:44:52.994Z,100035.63
2023-05-18T10:47:20.959Z,100038.63
2023-05-18T10:49:49.965Z,100038.88
2023-05-18T10:52:18.177Z,100030.78
2023-05-18T10:54:46.793Z,100029.06
2023-05-18T10:57:18.130Z,100041.00
2023-05-18T10:59:48.491Z,100039.97
2023-05-18T11:02:18.879Z,100028.38
2023-05-18T11:04:48.136Z,100037.53
2023-05-18T11:07:16.140Z,100038.19
2023-05-18T11:09:45.054Z,100037.78
2023-05-18T11:12:14.291Z,100031.13
2023-05-18T11:14:50.938Z,100041.69
2023-05-18T11:17:23.429Z,100043.31
2023-05-18T11:20:09.082Z,100051.81
2023-05-18T11:22:45.120Z,100033.25
2023-05-18T11:25:25.792Z,100044.88
2023-05-18T11:27:55.499Z,100048.72
2023-05-18T11:30:50.424Z,100042.72
2023-05-18T11:33:27.295Z,100049.47
2023-05-18T11:36:03.067Z,100039.06
2023-05-18T11:38:53.004Z,100047.16
2023-05-18T11:41:34.811Z,100050.78
2023-05-18T11:44:07.124Z,100039.50
2023-05-18T11:46:34.849Z,100042.41
2023-05-18T11:49:08.212Z,100048.47
2023-05-18T11:51:57.225Z,100055.03
2023-05-18T11:54:26.638Z,100058.81
2023-05-18T11:56:54.850Z,100057.09
2023-05-18T11:59:49.050Z,100046.38
2023-05-18T12:02:22.489Z,100051.56
2023-05-18T12:04:53.212Z,100046.13
2023-05-18T12:07:22.238Z,100029.44
2023-05-18T12:09:49.852Z,100045.31
2023-05-18T12:12:20.554Z,100049.88
2023-05-18T12:15:08.225Z,100048.31
2023-05-18T12:17:39.560Z,100050.78
2023-05-18T12:20:12.022Z,100040.50
2023-05-18T12:22:41.196Z,100053.72
2023-05-18T12:25:09.644Z,100063.13
2023-05-18T12:27:42.145Z,100051.25
2023-05-18T12:30:16.886Z,100053.75
2023-05-18T12:32:49.291Z,100060.47
2023-05-18T12:35:17.088Z,100045.44
2023-05-18T12:37:46.389Z,100062.38
2023-05-18T12:40:16.171Z,100067.13
2023-05-18T12:42:57.087Z,100074.28
2023-05-18T12:45:27.220Z,100064.03
2023-05-18T12:47:56.443Z,100077.22
2023-05-18T12:50:27.312Z,100081.38
2023-05-18T12:52:56.703Z,100080.50
2023-05-18T12:55:31.343Z,100080.97
2023-05-18T12:58:02.758Z,100076.81
2023-05-18T13:00:36.194Z,100090.13
2023-05-18T13:03:15.039Z,100068.84
2023-05-18T13:05:47.917Z,100088.81
2023-05-18T13:08:22.320Z,100105.13
2023-05-18T13:11:01.201Z,100073.84
2023-05-18T13:13:33.721Z,100105.81
2023-05-18T13:16:01.088Z,100098.94
2023-05-18T13:18:29.155Z,100096.56
2023-05-18T13:20:58.758Z,100090.94
2023-05-18T13:23:30.607Z,100101.97
2023-05-18T13:25:58.946Z,100098.78
2023-05-18T13:28:27.174Z,100087.56
2023-05-18T13:30:54.802Z,100092.03
2023-05-18T13:33:22.437Z,100066.59
2023-05-18T13:35:50.140Z,100091.03
2023-05-18T13:38:17.901Z,100080.41
2023-05-18T13:40:46.827Z,100087.66
2023-05-18T13:43:14.516Z,100095.00
2023-05-18T13:45:42.596Z,100082.47
2023-05-18T13:48:10.908Z,100101.88
2023-05-18T13:50:39.697Z,100093.72
2023-05-18T13:53:07.631Z,100091.41
2023-05-18T13:55:35.878Z,100108.31
2023-05-18T13:58:03.613Z,100101.22
2023-05-18T14:00:33.676Z,100105.38
2023-05-18T14:03:02.855Z,100096.19
2023-05-18T14:05:30.601Z,100106.00
2023-05-18T14:07:58.373Z,100102.69
2023-05-18T14:10:25.782Z,100100.63
2023-05-18T14:12:53.393Z,100099.75
2023-05-18T14:15:20.689Z,100085.16
2023-05-18T14:17:48.323Z,100114.34
2023-05-18T14:20:15.978Z,100105.75
2023-05-18T14:22:43.925Z,100107.41
2023-05-18T14:25:11.338Z,100102.59
2023-05-18T14:27:39.845Z,100102.31
2023-05-18T14:30:07.896Z,100091.06
2023-05-18T14:32:37.215Z,100100.91
2023-05-18T14:35:05.149Z,100102.56
2023-05-18T14:37:33.145Z,100100.13
2023-05-18T14:40:00.710Z,100101.69
2023-05-18T14:42:28.437Z,100099.19
2023-05-18T14:44:55.913Z,100100.44
2023-05-18T14:47:23.643Z,100100.03
2023-05-18T14:49:50.983Z,100100.88
2023-05-18T14:52:18.818Z,100094.91
2023-05-18T14:54:47.909Z,100098.66
2023-05-18T14:57:15.526Z,100096.59
2023-05-18T14:59:43.723Z,100097.25
2023-05-18T15:02:11.476Z,100094.78
2023-05-18T15:04:38.992Z,100107.50
2023-05-18T15:07:07.097Z,100099.38
2023-05-18T15:09:34.589Z,100105.06
2023-05-18T15:12:02.775Z,100103.41
2023-05-18T15:14:30.157Z,100104.84
2023-05-18T15:17:00.895Z,100101.69
2023-05-18T15:19:28.525Z,100104.63
2023-05-18T15:21:56.212Z,100095.00
2023-05-18T15:24:25.069Z,100091.31
2023-05-18T15:26:53.191Z,100098.44
2023-05-18T15:29:21.145Z,100099.50
2023-05-18T15:31:51.311Z,100100.53
2023-05-18T15:34:18.962Z,100094.63
2023-05-18T15:36:47.403Z,100099.25
2023-05-18T15:39:14.785Z,100090.38
2023-05-18T15:41:42.682Z,100103.09
2023-05-18T15:44:10.203Z,100104.38
2023-05-18T15:46:38.106Z,100097.41
2023-05-18T15:49:05.491Z,100100.72
2023-05-18T15:51:33.186Z,100080.31
2023-05-18T15:54:01.786Z,100099.47
2023-05-18T15:56:29.619Z,100080.00
2023-05-18T15:58:57.025Z,100095.94
2023-05-18T16:01:24.750Z,100098.38
2023-05-18T16:03:52.215Z,100107.38
2023-05-18T16:06:19.992Z,100101.75
2023-05-18T16:08:47.328Z,100087.97
2023-05-18T16:11:15.130Z,100105.44
2023-05-18T16:13:42.581Z,100093.06
2023-05-18T16:16:14.297Z,100110.75
2023-05-18T16:18:41.965Z,100110.13
2023-05-18T16:21:10.879Z,100104.72
2023-05-18T16:23:38.526Z,100115.56
2023-05-18T16:26:06.291Z,100111.16
2023-05-18T16:28:33.848Z,100123.47
2023-05-18T16:31:04.967Z,100114.13
2023-05-18T16:33:32.410Z,100097.59
2023-05-18T16:36:00.186Z,100126.41
2023-05-18T16:38:27.670Z,100131.88
2023-05-18T16:40:55.638Z,100125.63
2023-05-18T16:43:25.147Z,100133.16
2023-05-18T16:45:53.554Z,100132.75
2023-05-18T16:48:20.964Z,100114.38
2023-05-18T16:50:49.776Z,100124.41
2023-05-18T16:53:17.184Z,100119.78
2023-05-18T16:55:44.992Z,100127.72
2023-05-18T16:58:12.393Z,100129.81
2023-05-18T17:00:40.283Z,100135.25
2023-05-18T17:03:07.922Z,100125.44
2023-05-18T17:05:36.788Z,100141.94
2023-05-18T17:08:04.937Z,100143.78
2023-05-18T17:10:35.608Z,100138.19
2023-05-18T17:13:03.277Z,100139.22
2023-05-18T17:15:31.931Z,100130.66
2023-05-18T17:17:59.887Z,100142.59
2023-05-18T17:20:29.029Z,100145.44
2023-05-18T17:22:56.890Z,100149.03
2023-05-18T17:25:24.648Z,100124.63
2023-05-18T17:27:52.012Z,100149.06
2023-05-18T17:30:19.706Z,100151.56
2023-05-18T17:32:50.665Z,100145.31
2023-05-18T17:35:18.634Z,100132.56
2023-05-18T17:37:48.930Z,100137.72
2023-05-18T17:40:17.046Z,100151.13
2023-05-18T17:42:44.576Z,100133.97
2023-05-18T17:45:12.777Z,100132.50
2023-05-18T17:47:41.983Z,100134.38
2023-05-18T17:50:09.929Z,100130.38
2023-05-18T17:52:37.299Z,100127.09
2023-05-18T17:55:05.838Z,100122.88
2023-05-18T17:57:33.851Z,100115.16
2023-05-18T18:00:01.927Z,100129.78
2023-05-18T18:02:38.623Z,100131.22
2023-05-18T18:05:06.572Z,100128.91
2023-05-18T18:07:33.921Z,100133.53
2023-05-18T18:10:01.686Z,100130.13
2023-05-18T18:12:28.978Z,100142.41
2023-05-18T18:14:56.667Z,100146.81
2023-05-18T18:17:24.129Z,100155.13
2023-05-18T18:19:52.897Z,100144.88
2023-05-18T18:22:20.699Z,100153.41
2023-05-18T18:24:48.482Z,100160.53
2023-05-18T18:27:19.465Z,100156.38
2023-05-18T18:29:49.286Z,100151.19
2023-05-18T18:32:16.955Z,100151.59
2023-05-18T18:34:44.981Z,100188.47
2023-05-18T18:37:12.367Z,100167.41
2023-05-18T18:39:40.085Z,100192.25
2023-05-18T18:42:07.944Z,100197.19
2023-05-18T18:44:35.762Z,100199.50
2023-05-18T18:47:03.374Z,100199.13
2023-05-18T18:49:31.295Z,100206.41
2023-05-18T18:52:01.129Z,100214.53
2023-05-18T18:54:30.444Z,100205.56
2023-05-18T18:56:57.862Z,100202.25
2023-05-18T18:59:26.904Z,100216.66
2023-05-18T19:01:54.362Z,100221.81
2023-05-18T19:04:22.373Z,100206.75
2023-05-18T19:06:49.808Z,100208.03
2023-05-18T19:09:20.637Z,100211.59
2023-05-18T19:11:49.342Z,100216.44
2023-05-18T19:14:17.207Z,100218.28
2023-05-18T19:16:44.596Z,100218.28
2023-05-18T19:19:12.363Z,100226.41
2023-05-18T19:21:39.790Z,100224.75
2023-05-18T19:24:08.405Z,100226.00
2023-05-18T19:26:35.985Z,100213.00
2023-05-18T19:29:04.564Z,100237.22
2023-05-18T19:31:34.482Z,100231.84
2023-05-18T19:34:02.629Z,100231.22
2023-05-18T19:36:31.628Z,100230.56
2023-05-18T19:38:59.559Z,100239.91
2023-05-18T19:41:27.009Z,100237.66
2023-05-18T19:43:54.958Z,100224.69
2023-05-18T19:46:22.526Z,100225.56
2023-05-18T19:48:50.253Z,100229.88
2023-05-18T19:51:18.696Z,100238.63
2023-05-18T19:53:46.504Z,100237.22
2023-05-18T19:56:13.917Z,100246.28
2023-05-18T19:58:41.884Z,100246.03
2023-05-18T20:01:10.223Z,100236.41
2023-05-18T20:03:41.499Z,100244.97
2023-05-18T20:06:11.391Z,100248.91
2023-05-18T20:08:39.901Z,100246.97
2023-05-18T20:11:07.277Z,100248.25
2023-05-18T20:13:35.128Z,100251.16
2023-05-18T20:16:06.048Z,100240.69
2023-05-18T20:18:35.170Z,100259.69
2023-05-18T20:21:02.726Z,100256.28
2023-05-18T20:23:30.678Z,100261.91
2023-05-18T20:25:58.242Z,100254.06
2023-05-18T20:28:28.986Z,100269.91
2023-05-18T20:30:56.862Z,100263.47
2023-05-18T20:33:25.039Z,100270.31
2023-05-18T20:35:52.698Z,100265.94
2023-05-18T20:38:20.587Z,100279.72
2023-05-18T20:40:51.414Z,100268.59
2023-05-18T20:43:19.310Z,100274.66
2023-05-18T20:45:47.506Z,100270.06
2023-05-18T20:48:26.133Z,100273.63
2023-05-18T20:50:53.762Z,100260.41
2023-05-18T20:53:27.713Z,100275.63
2023-05-18T20:55:56.334Z,100270.47
2023-05-18T20:58:26.540Z,100270.88
2023-05-18T21:00:56.275Z,100267.50
2023-05-18T21:03:24.270Z,100271.09
2023-05-18T21:05:52.889Z,100269.69
2023-05-18T21:08:20.682Z,100252.28
2023-05-18T21:10:47.953Z,100278.28
2023-05-18T21:13:15.924Z,100274.56
2023-05-18T21:15:44.986Z,100276.63
2023-05-18T21:18:13.429Z,100259.25
2023-05-18T21:20:41.393Z,100280.22
2023-05-18T21:23:09.248Z,100264.31
2023-05-18T21:25:36.603Z,100276.56
2023-05-18T21:28:04.761Z,100278.91
2023-05-18T21:30:32.597Z,100274.50
2023-05-18T21:33:02.369Z,100272.22
2023-05-18T21:35:30.306Z,100273.47
2023-05-18T21:37:58.249Z,100268.91
2023-05-18T21:40:25.577Z,100268.03
2023-05-18T21:42:54.149Z,100274.50
2023-05-18T21:45:22.971Z,100265.72
2023-05-18T21:47:51.052Z,100258.78
2023-05-18T21:50:18.628Z,100265.66
2023-05-18T21:52:47.040Z,100270.22
2023-05-18T21:55:14.410Z,100271.50
2023-05-18T21:57:43.397Z,100265.66
2023-05-18T22:00:14.065Z,100265.69
2023-05-18T22:02:42.003Z,100272.78
2023-05-18T22:05:09.961Z,100274.06
2023-05-18T22:07:37.698Z,100270.94
2023-05-18T22:10:05.776Z,100269.00
2023-05-18T22:12:34.407Z,100274.31
2023-05-18T22:15:01.861Z,100281.84
2023-05-18T22:17:31.437Z,100282.06
2023-05-18T22:19:59.471Z,100275.06
2023-05-18T22:22:30.578Z,100273.25
2023-05-18T22:24:58.701Z,100277.44
2023-05-18T22:27:26.663Z,100271.03
2023-05-18T22:29:54.127Z,100254.13
2023-05-18T22:32:22.058Z,100283.66
2023-05-18T22:34:49.712Z,100279.25
2023-05-18T22:37:18.510Z,100280.84
2023-05-18T22:39:46.056Z,100284.22
2023-05-18T22:42:14.590Z,100288.84
2023-05-18T22:44:42.073Z,100291.00
2023-05-18T22:47:09.782Z,100278.88
2023-05-18T22:49:37.371Z,100281.19
2023-05-18T22:52:06.838Z,100282.88
2023-05-18T22:54:35.526Z,100271.03
2023-05-18T22:57:04.876Z,100271.66
2023-05-18T22:59:33.390Z,100272.44
2023-05-18T23:02:01.687Z,100267.47
2023-05-18T23:04:29.410Z,100267.41
2023-05-18T23:06:58.065Z,100260.69
2023-05-18T23:09:28.576Z,100254.78
2023-05-18T23:11:56.800Z,100258.16
2023-05-18T23:14:25.394Z,100263.78
2023-05-18T23:16:54.564Z,100262.56
2023-05-18T23:19:23.903Z,100267.50
2023-05-18T23:21:54.405Z,100267.72
2023-05-18T23:24:22.681Z,100256.16
2023-05-18T23:26:50.415Z,100261.78
2023-05-18T23:29:18.127Z,100259.78
2023-05-18T23:31:46.188Z,100255.66
2023-05-18T23:34:13.944Z,100257.09
2023-05-18T23:36:43.222Z,100255.22
2023-05-18T23:39:11.041Z,100253.38
2023-05-18T23:41:42.843Z,100259.84
2023-05-18T23:44:11.633Z,100250.47
2023-05-18T23:46:39.742Z,100245.88
2023-05-18T23:49:07.336Z,100250.72
2023-05-18T23:51:36.691Z,100261.47
2023-05-18T23:54:09.634Z,100246.00
2023-05-18T23:56:37.699Z,100236.47
2023-05-18T23:59:07.043Z,100242.03
